Time;durP1;ratioP1;P1;durP2;ratioP2;P2;SDS_P1;SDS_P2;PMS_P1;PMS_P2;Temp;Humidity;BMP_temperature;BMP_pressure;BME280_temperature;BME280_humidity;BME280_pressure;Samples;Min_cycle;Max_cycle;Signal;HPM_P1;HPM_P2
2022/11/17 00:01:18;;;;;;;17.05;8.25;;;7.90;99.90;;;;;;5056947;28;20396;-78
2022/11/17 00:03:44;;;;;;;19.17;8.65;;;8.00;99.90;;;;;;5037968;28;20392;-78
2022/11/17 00:06:10;;;;;;;17.50;8.60;;;7.90;99.90;;;;;;5056210;28;20047;-78
2022/11/17 00:08:36;;;;;;;20.67;8.98;;;7.90;99.90;;;;;;5039242;28;20040;-78
2022/11/17 00:11:02;;;;;;;18.45;9.23;;;8.70;99.90;;;;;;5038726;28;20072;-78
2022/11/17 00:16:17;;;;;;;23.10;9.43;;;7.90;99.90;;;;;;5062597;28;20048;-78
2022/11/17 00:21:27;;;;;;;17.85;8.63;;;8.00;99.90;;;;;;5062039;28;20042;-84
2022/11/17 00:23:57;;;;;;;16.60;7.65;;;8.00;99.90;;;;;;5099145;28;20120;-84
2022/11/17 00:26:31;;;;;;;20.70;8.90;;;8.20;99.90;;;;;;5047675;28;20419;-83
2022/11/17 00:29:03;;;;;;;13.43;7.70;;;8.00;99.90;;;;;;5045675;28;20388;-84
2022/11/17 00:34:20;;;;;;;16.97;8.33;;;8.00;99.90;;;;;;5061019;28;20049;-78
2022/11/17 00:36:55;;;;;;;16.10;7.43;;;8.00;99.90;;;;;;5072103;28;20327;-78
2022/11/17 00:39:22;;;;;;;17.05;8.90;;;8.00;99.90;;;;;;5070740;28;20502;-78
2022/11/17 00:41:48;;;;;;;15.35;7.63;;;8.00;99.90;;;;;;5070534;28;20036;-78
2022/11/17 00:44:14;;;;;;;17.80;7.45;;;8.00;99.90;;;;;;5055797;28;20090;-78
2022/11/17 00:46:40;;;;;;;19.10;9.73;;;8.10;99.90;;;;;;5072334;28;20040;-77
2022/11/17 00:49:08;;;;;;;16.23;7.88;;;8.00;99.90;;;;;;5079974;22;20154;-80
2022/11/17 00:51:34;;;;;;;15.05;7.32;;;8.00;99.90;;;;;;5051830;28;20041;-79
2022/11/17 00:54:00;;;;;;;13.88;7.22;;;8.10;99.90;;;;;;5052211;28;20136;-79
2022/11/17 00:56:26;;;;;;;15.82;7.97;;;8.10;99.90;;;;;;5035084;28;20048;-79
2022/11/17 00:58:52;;;;;;;16.27;7.80;;;8.10;99.90;;;;;;5051058;28;20029;-79
2022/11/17 01:01:19;;;;;;;15.65;8.00;;;8.20;99.90;;;;;;5048845;28;20469;-79
2022/11/17 01:03:44;;;;;;;16.38;7.03;;;8.20;99.90;;;;;;5032774;28;20033;-79
2022/11/17 01:06:14;;;;;;;18.83;7.95;;;8.40;99.90;;;;;;5051710;28;20060;-82
2022/11/17 01:08:40;;;;;;;12.65;7.07;;;8.10;99.90;;;;;;5052942;28;20473;-83
2022/11/17 01:11:07;;;;;;;15.82;7.10;;;8.20;99.90;;;;;;5035014;28;20087;-83
2022/11/17 01:13:33;;;;;;;12.40;7.45;;;8.10;99.90;;;;;;5035887;28;20048;-83
2022/11/17 01:16:13;;;;;;;12.85;6.43;;;8.10;99.90;;;;;;5035770;28;20037;-83
2022/11/17 01:18:39;;;;;;;12.43;7.07;;;8.20;99.90;;;;;;5035712;28;20124;-83
2022/11/17 01:21:08;;;;;;;11.75;7.40;;;8.20;99.90;;;;;;5050655;28;20044;-83
2022/11/17 01:23:36;;;;;;;15.07;8.20;;;8.10;99.90;;;;;;5058407;28;20068;-77
2022/11/17 01:26:07;;;;;;;13.90;7.68;;;8.10;99.90;;;;;;5035108;28;20519;-77
2022/11/17 01:28:34;;;;;;;12.40;7.32;;;8.10;99.90;;;;;;5051772;28;20044;-77
2022/11/17 01:31:01;;;;;;;13.52;7.22;;;8.10;99.90;;;;;;5051403;28;20037;-77
2022/11/17 01:33:27;;;;;;;13.02;7.15;;;8.10;99.90;;;;;;5051790;28;20032;-77
2022/11/17 01:35:53;;;;;;;13.25;7.25;;;8.20;99.90;;;;;;5035497;28;20044;-77
2022/11/17 01:38:18;;;;;;;12.00;7.25;;;8.10;99.90;;;;;;5051958;28;20377;-77
2022/11/17 01:40:44;;;;;;;17.42;7.53;;;8.20;99.90;;;;;;5051179;28;20044;-79
2022/11/17 01:43:10;;;;;;;12.10;7.85;;;8.10;99.90;;;;;;5034265;28;20036;-79
2022/11/17 01:45:36;;;;;;;14.13;7.50;;;8.10;99.90;;;;;;5050377;28;20044;-79
2022/11/17 01:48:06;;;;;;;15.18;7.47;;;8.10;99.90;;;;;;5054479;28;20205;-79
2022/11/17 01:50:41;;;;;;;15.00;7.35;;;8.10;99.90;;;;;;5081099;28;20049;-79
2022/11/17 01:53:14;;;;;;;10.48;6.88;;;8.10;99.90;;;;;;5069749;28;20056;-79
2022/11/17 01:56:09;;;;;;;13.57;6.88;;;8.20;99.90;;;;;;5080098;28;20124;-79
2022/11/17 01:58:49;;;;;;;11.38;6.45;;;8.10;99.90;;;;;;5034706;28;20056;-83
2022/11/17 02:01:15;;;;;;;14.05;5.65;;;8.40;99.90;;;;;;5032816;28;20033;-83
2022/11/17 02:03:43;;;;;;;13.35;6.65;;;8.20;99.90;;;;;;5034626;28;20044;-84
2022/11/17 02:06:10;;;;;;;14.25;7.07;;;8.20;99.90;;;;;;5052010;28;20392;-84
2022/11/17 02:08:38;;;;;;;11.35;6.28;;;8.20;99.90;;;;;;5051773;28;20044;-83
2022/11/17 02:11:09;;;;;;;11.10;6.10;;;8.20;99.90;;;;;;5051293;28;20512;-83
2022/11/17 02:13:35;;;;;;;10.63;6.07;;;8.10;99.90;;;;;;5036746;28;20033;-79
2022/11/17 02:16:01;;;;;;;11.02;6.68;;;8.10;99.90;;;;;;5060134;28;20044;-79
2022/11/17 02:18:27;;;;;;;13.05;7.03;;;8.10;99.90;;;;;;5054449;28;20063;-79
2022/11/17 02:21:27;;;;;;;9.98;5.80;;;8.10;99.90;;;;;;5071860;28;20085;-79
2022/11/17 02:24:11;;;;;;;9.85;5.93;;;8.00;99.90;;;;;;5036717;28;20084;-79
2022/11/17 02:27:09;;;;;;;10.95;6.10;;;8.00;99.90;;;;;;5066985;28;20048;-80
2022/11/17 02:29:59;;;;;;;12.20;6.35;;;8.00;99.90;;;;;;5064827;28;20053;-77
2022/11/17 02:32:44;;;;;;;14.05;6.65;;;8.20;99.90;;;;;;5074207;28;20040;-77
2022/11/17 02:36:00;;;;;;;13.57;6.65;;;8.00;99.90;;;;;;5054624;28;20040;-77
2022/11/17 02:38:37;;;;;;;15.88;7.18;;;8.00;99.90;;;;;;5017356;28;20057;-77
2022/11/17 02:41:27;;;;;;;13.73;7.53;;;7.90;99.90;;;;;;5033689;28;20126;-76
2022/11/17 02:44:03;;;;;;;13.25;6.63;;;7.90;99.90;;;;;;5055884;28;20120;-76
2022/11/17 02:46:39;;;;;;;10.82;6.97;;;7.80;99.90;;;;;;5086798;28;20384;-78
2022/11/17 02:49:28;;;;;;;12.88;6.60;;;7.70;99.90;;;;;;5073960;28;20056;-78
2022/11/17 02:51:56;;;;;;;14.43;6.82;;;7.70;99.90;;;;;;5066356;28;20049;-78
2022/11/17 02:54:25;;;;;;;13.57;7.07;;;7.70;99.90;;;;;;5081609;28;20393;-78
2022/11/17 02:56:51;;;;;;;11.63;7.32;;;7.60;99.90;;;;;;5054901;28;20081;-78
2022/11/17 02:59:21;;;;;;;13.07;7.30;;;7.60;99.90;;;;;;5042260;28;20498;-78
2022/11/17 03:02:13;;;;;;;16.00;7.65;;;8.00;99.90;;;;;;5057282;28;20071;-78
2022/11/17 03:05:03;;;;;;;14.68;6.60;;;7.60;99.90;;;;;;5057416;28;20426;-79
2022/11/17 03:08:07;;;;;;;15.23;7.85;;;7.60;99.90;;;;;;5060068;28;20154;-79
2022/11/17 03:10:57;;;;;;;15.55;7.97;;;7.50;99.90;;;;;;5074069;28;20040;-79
2022/11/17 03:13:48;;;;;;;14.80;7.38;;;7.40;99.90;;;;;;5057284;28;20039;-79
2022/11/17 03:16:24;;;;;;;13.55;7.20;;;7.50;99.90;;;;;;5042908;28;20040;-79
2022/11/17 03:19:29;;;;;;;14.27;7.10;;;8.00;99.90;;;;;;5061133;28;20111;-79
2022/11/17 03:22:15;;;;;;;12.07;6.97;;;7.40;99.90;;;;;;5073836;28;20036;-76
2022/11/17 03:24:48;;;;;;;10.68;6.97;;;7.40;99.90;;;;;;5040603;28;20041;-76
2022/11/17 03:27:18;;;;;;;14.52;6.82;;;7.50;99.90;;;;;;5037126;28;20040;-76
2022/11/17 03:29:51;;;;;;;13.27;7.45;;;7.70;99.90;;;;;;5053682;28;20089;-75
2022/11/17 03:32:17;;;;;;;14.52;7.85;;;7.40;99.90;;;;;;5055163;28;20040;-76
2022/11/17 03:34:48;;;;;;;9.75;5.80;;;7.10;99.90;;;;;;5070716;28;20037;-76
2022/11/17 03:37:18;;;;;;;15.48;7.25;;;6.90;99.90;;;;;;5059961;28;20049;-79
2022/11/17 03:39:51;;;;;;;13.75;7.35;;;6.70;99.90;;;;;;5056006;28;20488;-78
2022/11/17 03:42:27;;;;;;;14.02;7.18;;;6.90;99.90;;;;;;5049737;28;20171;-79
2022/11/17 03:45:35;;;;;;;15.15;7.90;;;7.00;99.90;;;;;;5077590;28;20033;-79
2022/11/17 03:48:23;;;;;;;14.90;6.82;;;6.60;99.90;;;;;;5081242;28;20056;-79
2022/11/17 03:51:14;;;;;;;12.73;7.45;;;7.90;99.90;;;;;;5080935;28;20048;-79
2022/11/17 03:53:41;;;;;;;10.73;7.18;;;8.00;99.90;;;;;;5056904;28;20033;-76
2022/11/17 03:56:17;;;;;;;11.18;6.25;;;6.90;99.90;;;;;;5073242;28;20040;-76
2022/11/17 03:58:52;;;;;;;12.75;7.13;;;8.30;99.90;;;;;;5050954;28;20032;-76
2022/11/17 04:01:19;;;;;;;15.15;7.57;;;7.00;99.90;;;;;;5073010;28;20040;-76
2022/11/17 04:03:46;;;;;;;14.27;7.25;;;6.90;99.90;;;;;;5073324;28;20040;-76
2022/11/17 04:06:12;;;;;;;14.48;6.63;;;7.20;99.90;;;;;;5064294;28;20105;-76
2022/11/17 04:08:38;;;;;;;11.70;6.70;;;6.60;99.90;;;;;;5045707;28;20476;-76
2022/11/17 04:16:31;;;;;;;13.40;6.70;;;6.80;99.90;;;;;;5058694;28;20036;-83
2022/11/17 04:18:57;;;;;;;15.10;6.25;;;8.70;99.90;;;;;;5071381;28;20033;-83
2022/11/17 04:21:23;;;;;;;14.73;7.35;;;7.00;99.90;;;;;;5054992;28;20048;-84
2022/11/17 04:23:48;;;;;;;12.15;6.60;;;7.10;99.90;;;;;;5073106;28;20416;-83
2022/11/17 04:28:58;;;;;;;10.43;6.22;;;8.10;99.90;;;;;;5073186;28;20044;-83
2022/11/17 04:31:29;;;;;;;13.00;5.75;;;8.00;99.90;;;;;;5054399;28;20531;-84
2022/11/17 04:33:57;;;;;;;10.82;5.93;;;6.80;99.90;;;;;;5072975;28;20044;-84
2022/11/17 04:36:28;;;;;;;10.40;6.18;;;8.20;99.90;;;;;;5072847;28;20075;-83
2022/11/17 04:38:56;;;;;;;9.18;5.25;;;6.50;99.90;;;;;;5089463;28;20028;-83
2022/11/17 04:44:09;;;;;;;12.38;6.68;;;6.50;99.90;;;;;;5064243;28;20083;-76
2022/11/17 04:46:36;;;;;;;10.30;6.22;;;6.50;99.90;;;;;;5056351;28;20662;-76
2022/11/17 04:49:03;;;;;;;11.13;6.10;;;6.90;99.90;;;;;;5054503;28;20067;-77
2022/11/17 04:51:29;;;;;;;11.35;6.10;;;6.50;99.90;;;;;;5071496;28;20589;-77
2022/11/17 04:53:55;;;;;;;9.60;5.75;;;7.80;99.90;;;;;;5055580;28;20037;-77
2022/11/17 04:56:22;;;;;;;12.07;5.85;;;6.70;99.90;;;;;;5038583;28;20040;-77
2022/11/17 04:58:48;;;;;;;11.85;5.32;;;7.90;99.90;;;;;;5084302;28;20033;-77
2022/11/17 05:01:16;;;;;;;10.07;5.85;;;7.60;99.90;;;;;;5060723;28;20448;-79
2022/11/17 05:03:42;;;;;;;10.85;5.85;;;8.60;99.90;;;;;;5071516;28;20515;-79
2022/11/17 05:06:46;;;;;;;11.32;5.70;;;6.50;99.90;;;;;;5047113;28;20042;-80
2022/11/17 05:09:16;;;;;;;9.43;5.45;;;6.50;99.90;;;;;;5054561;28;20036;-80
2022/11/17 05:14:27;;;;;;;11.10;6.13;;;6.60;99.90;;;;;;5088489;28;20040;-80
2022/11/17 05:17:05;;;;;;;10.95;5.90;;;6.90;99.90;;;;;;5108712;28;20095;-83
2022/11/17 05:19:39;;;;;;;11.98;6.85;;;7.60;99.90;;;;;;5064430;28;20404;-83
2022/11/17 05:23:52;;;;;;;12.77;6.03;;;7.10;99.90;;;;;;5068048;28;20433;-83
2022/11/17 05:24:52;;;;;;;12.05;6.72;;;7.50;99.90;;;;;;5058429;28;20045;-83
2022/11/17 05:27:18;;;;;;;11.40;5.93;;;6.90;99.90;;;;;;5072318;28;20036;-83
2022/11/17 05:29:44;;;;;;;12.75;6.20;;;7.00;99.90;;;;;;5055190;28;20040;-83
2022/11/17 05:32:10;;;;;;;12.77;5.72;;;6.60;99.90;;;;;;5066737;28;20032;-83
2022/11/17 05:34:35;;;;;;;11.13;6.35;;;7.40;99.90;;;;;;5054056;28;20447;-79
2022/11/17 05:37:01;;;;;;;11.85;5.80;;;7.20;99.90;;;;;;5070383;28;20403;-79
2022/11/17 05:39:27;;;;;;;11.80;6.82;;;7.20;99.90;;;;;;5054968;28;20033;-79
2022/11/17 05:41:52;;;;;;;12.02;6.32;;;7.20;99.90;;;;;;5067785;28;20558;-79
2022/11/17 05:44:18;;;;;;;9.57;6.28;;;6.90;99.90;;;;;;5046681;28;20377;-79
2022/11/17 05:46:44;;;;;;;12.55;6.00;;;7.10;99.90;;;;;;5053991;28;20460;-79
2022/11/17 05:49:09;;;;;;;9.10;5.50;;;7.00;99.90;;;;;;5087751;28;20053;-79
2022/11/17 05:51:36;;;;;;;11.55;6.38;;;8.30;99.90;;;;;;5063408;28;20788;-79
2022/11/17 05:54:02;;;;;;;9.63;5.70;;;6.90;99.90;;;;;;5054207;28;20111;-79
2022/11/17 05:56:43;;;;;;;10.27;5.60;;;6.80;99.90;;;;;;5064246;28;20083;-79
2022/11/17 05:59:12;;;;;;;10.05;5.47;;;6.80;99.90;;;;;;5079906;28;20047;-79
2022/11/17 06:01:47;;;;;;;9.23;5.40;;;6.70;99.90;;;;;;5065559;28;20381;-79
2022/11/17 06:04:16;;;;;;;9.10;5.40;;;6.70;99.90;;;;;;5069963;28;20181;-79
2022/11/17 06:06:42;;;;;;;9.93;5.82;;;6.70;99.90;;;;;;5073354;28;20418;-79
2022/11/17 06:09:08;;;;;;;10.23;5.63;;;6.80;99.90;;;;;;5091528;28;20089;-78
2022/11/17 06:11:34;;;;;;;9.27;5.20;;;6.70;99.90;;;;;;5038117;28;20497;-78
2022/11/17 06:14:00;;;;;;;10.30;6.20;;;6.70;99.90;;;;;;5050591;28;20036;-78
2022/11/17 06:16:29;;;;;;;9.20;5.38;;;6.80;99.90;;;;;;5069773;28;20079;-78
2022/11/17 06:19:09;;;;;;;8.57;4.82;;;6.70;99.90;;;;;;5073488;28;20040;-78
2022/11/17 06:21:35;;;;;;;9.55;5.05;;;6.70;99.90;;;;;;5073825;28;20056;-78
2022/11/17 06:24:02;;;;;;;9.30;5.82;;;7.20;99.90;;;;;;5073137;28;20190;-79
2022/11/17 06:26:28;;;;;;;10.02;5.03;;;6.70;99.90;;;;;;5073910;28;20040;-78
2022/11/17 06:28:55;;;;;;;8.40;4.57;;;6.60;99.90;;;;;;5044671;28;20063;-78
2022/11/17 06:31:21;;;;;;;8.25;4.70;;;6.60;99.90;;;;;;5074470;28;20045;-79
2022/11/17 06:33:47;;;;;;;7.88;4.63;;;6.80;99.90;;;;;;5070311;28;20040;-78
2022/11/17 06:36:13;;;;;;;10.20;5.43;;;6.60;99.90;;;;;;5050389;28;20098;-78
2022/11/17 06:38:39;;;;;;;7.32;4.38;;;6.60;99.90;;;;;;5073633;28;20040;-78
2022/11/17 06:41:05;;;;;;;7.85;4.13;;;6.60;99.90;;;;;;5074401;28;20102;-79
2022/11/17 06:43:31;;;;;;;7.05;4.22;;;6.80;99.90;;;;;;5090798;28;20143;-79
2022/11/17 06:46:02;;;;;;;7.60;4.00;;;6.60;99.90;;;;;;5073894;28;20079;-79
2022/11/17 06:48:28;;;;;;;8.63;3.97;;;6.60;99.90;;;;;;5050653;28;20123;-79
2022/11/17 06:50:54;;;;;;;10.75;5.22;;;6.60;99.90;;;;;;5049230;28;20560;-79
2022/11/17 06:53:25;;;;;;;7.35;4.30;;;6.50;99.90;;;;;;5090864;28;20530;-79
2022/11/17 06:56:01;;;;;;;8.15;4.22;;;6.50;99.90;;;;;;5078120;28;20048;-80
2022/11/17 06:58:28;;;;;;;6.80;4.00;;;6.50;99.90;;;;;;5042194;28;20547;-83
2022/11/17 07:00:59;;;;;;;7.50;4.20;;;6.50;99.90;;;;;;5072741;28;20442;-83
2022/11/17 07:03:25;;;;;;;7.50;4.55;;;6.50;99.90;;;;;;5074953;28;20040;-83
2022/11/17 07:05:51;;;;;;;7.03;4.32;;;6.50;99.90;;;;;;5054971;28;20418;-83
2022/11/17 07:08:20;;;;;;;7.38;4.63;;;5.90;99.90;;;;;;5068644;28;20052;-83
2022/11/17 07:10:53;;;;;;;7.25;4.60;;;6.40;99.90;;;;;;5055403;28;20645;-83
2022/11/17 07:13:20;;;;;;;7.80;4.07;;;6.40;99.90;;;;;;5058654;28;20037;-78
2022/11/17 07:15:45;;;;;;;7.55;4.20;;;6.40;99.90;;;;;;5103682;28;20040;-79
2022/11/17 07:18:11;;;;;;;7.97;3.75;;;6.50;99.90;;;;;;5048002;28;20131;-79
2022/11/17 07:20:37;;;;;;;9.63;4.53;;;6.50;99.90;;;;;;5056730;28;20132;-79
2022/11/17 07:23:02;;;;;;;7.85;4.38;;;6.40;99.90;;;;;;5081286;28;20040;-79
2022/11/17 07:25:28;;;;;;;11.15;4.93;;;6.70;99.90;;;;;;5070228;28;20046;-79
2022/11/17 07:27:58;;;;;;;8.32;4.80;;;6.40;99.90;;;;;;5064938;28;20162;-79
2022/11/17 07:30:24;;;;;;;7.18;4.68;;;6.40;99.90;;;;;;5065052;28;20040;-77
2022/11/17 07:32:50;;;;;;;6.72;4.20;;;6.30;99.90;;;;;;5045862;28;20392;-77
2022/11/17 07:35:16;;;;;;;7.07;4.35;;;6.90;99.90;;;;;;5067228;28;20044;-77
2022/11/17 07:37:42;;;;;;;6.38;4.13;;;7.00;99.90;;;;;;5073688;28;20040;-77
2022/11/17 07:40:08;;;;;;;7.28;4.60;;;6.40;99.90;;;;;;5051431;28;20087;-77
2022/11/17 07:42:34;;;;;;;9.02;5.03;;;6.40;99.90;;;;;;5055565;28;20431;-77
2022/11/17 07:45:00;;;;;;;8.32;4.40;;;7.40;99.90;;;;;;5052761;28;20044;-77
2022/11/17 07:47:26;;;;;;;7.05;4.28;;;6.40;99.90;;;;;;5059560;28;20040;-79
2022/11/17 07:49:51;;;;;;;7.20;4.20;;;6.50;99.90;;;;;;5066706;28;20135;-79
2022/11/17 07:52:17;;;;;;;6.35;4.25;;;6.40;99.90;;;;;;5054693;28;20040;-79
2022/11/17 07:54:43;;;;;;;7.07;4.43;;;6.40;99.90;;;;;;5037738;28;20090;-79
2022/11/17 07:57:09;;;;;;;8.65;5.03;;;6.40;99.90;;;;;;5054386;28;20472;-79
2022/11/17 07:59:34;;;;;;;6.82;4.13;;;6.40;99.90;;;;;;5055213;28;20032;-79
2022/11/17 08:02:00;;;;;;;6.13;3.85;;;6.40;99.90;;;;;;5055260;28;20086;-79
2022/11/17 08:04:26;;;;;;;8.02;4.45;;;6.30;99.90;;;;;;5038711;28;20032;-82
2022/11/17 08:06:51;;;;;;;7.10;4.43;;;6.40;99.90;;;;;;5058996;28;20127;-82
2022/11/17 08:09:17;;;;;;;8.43;4.53;;;6.50;99.90;;;;;;5073336;28;20491;-82
2022/11/17 08:11:43;;;;;;;7.70;4.43;;;6.50;99.90;;;;;;5063855;28;20105;-82
2022/11/17 08:14:09;;;;;;;5.50;3.53;;;6.50;99.90;;;;;;5073350;28;20076;-83
2022/11/17 08:16:35;;;;;;;6.70;3.78;;;6.80;99.90;;;;;;5053802;28;20047;-83
2022/11/17 08:19:03;;;;;;;6.00;3.88;;;6.40;99.90;;;;;;5056500;28;21546;-83
2022/11/17 08:21:28;;;;;;;6.85;3.60;;;6.60;99.90;;;;;;5059013;28;20036;-76
2022/11/17 08:23:55;;;;;;;5.88;3.65;;;6.50;99.90;;;;;;5063543;28;20547;-76
2022/11/17 08:26:23;;;;;;;6.07;3.90;;;6.90;99.90;;;;;;5059876;28;20189;-76
2022/11/17 08:28:49;;;;;;;7.97;4.43;;;6.50;99.90;;;;;;5062207;28;20045;-76
2022/11/17 08:31:15;;;;;;;5.53;3.60;;;6.60;99.90;;;;;;5063312;28;20033;-76
2022/11/17 08:33:41;;;;;;;6.55;4.15;;;6.30;99.90;;;;;;5055787;28;20056;-76
2022/11/17 08:36:07;;;;;;;6.28;4.07;;;6.70;99.90;;;;;;5049322;28;20468;-76
2022/11/17 08:38:33;;;;;;;5.35;3.35;;;6.50;99.90;;;;;;5054920;28;20044;-76
2022/11/17 08:41:02;;;;;;;7.90;4.00;;;6.30;99.90;;;;;;5072061;28;20111;-76
2022/11/17 08:43:29;;;;;;;6.82;3.70;;;6.20;99.90;;;;;;5055376;28;20044;-76
2022/11/17 08:45:55;;;;;;;6.30;3.75;;;7.60;99.90;;;;;;5071920;28;20044;-76
2022/11/17 08:48:21;;;;;;;5.68;3.45;;;6.30;99.90;;;;;;5055016;28;20055;-76
2022/11/17 08:50:47;;;;;;;6.32;4.50;;;6.30;99.90;;;;;;5054398;28;20484;-76
2022/11/17 08:53:18;;;;;;;7.00;3.80;;;6.30;99.90;;;;;;5049786;28;20032;-78
2022/11/17 08:55:44;;;;;;;6.32;3.63;;;7.00;99.90;;;;;;5071877;28;20039;-78
2022/11/17 08:58:11;;;;;;;6.00;3.78;;;6.70;99.90;;;;;;5060450;28;20540;-82
2022/11/17 09:00:38;;;;;;;6.28;3.92;;;6.10;99.90;;;;;;5035782;28;20504;-82
2022/11/17 09:03:08;;;;;;;6.90;3.60;;;6.30;99.90;;;;;;5039559;28;20048;-82
2022/11/17 09:05:39;;;;;;;6.72;4.03;;;7.10;99.90;;;;;;5055087;28;20040;-82
2022/11/17 09:08:05;;;;;;;6.15;3.50;;;6.30;99.90;;;;;;5055647;28;20075;-82
2022/11/17 09:10:31;;;;;;;6.03;3.35;;;6.20;99.90;;;;;;5056001;28;20052;-79
2022/11/17 09:12:57;;;;;;;6.38;3.72;;;6.80;99.90;;;;;;5039512;28;20460;-79
2022/11/17 09:15:23;;;;;;;6.55;4.18;;;6.30;99.90;;;;;;5058669;28;20093;-79
2022/11/17 09:17:50;;;;;;;7.70;4.28;;;6.60;99.90;;;;;;5053343;28;20116;-79
2022/11/17 09:20:16;;;;;;;6.13;3.83;;;6.90;99.90;;;;;;5053756;28;20064;-79
2022/11/17 09:22:42;;;;;;;6.85;4.15;;;6.30;99.90;;;;;;5053677;28;20040;-79
2022/11/17 09:25:08;;;;;;;6.68;3.63;;;6.50;99.90;;;;;;5052744;28;20412;-79
2022/11/17 09:27:34;;;;;;;6.40;3.63;;;6.20;99.90;;;;;;5054354;28;20036;-79
2022/11/17 09:29:59;;;;;;;7.40;3.75;;;7.00;99.90;;;;;;5054278;28;20033;-79
2022/11/17 09:32:25;;;;;;;6.13;3.40;;;6.20;99.90;;;;;;5037698;28;20048;-79
2022/11/17 09:34:51;;;;;;;6.20;3.60;;;6.20;99.90;;;;;;5054220;28;20051;-79
2022/11/17 09:37:17;;;;;;;6.25;3.63;;;7.00;99.90;;;;;;5054086;28;20039;-79
2022/11/17 09:39:43;;;;;;;6.15;3.92;;;7.00;99.90;;;;;;5035441;28;20036;-79
2022/11/17 09:42:14;;;;;;;6.35;3.83;;;6.40;99.90;;;;;;5038719;28;20041;-79
2022/11/17 09:44:50;;;;;;;7.35;4.20;;;6.60;99.90;;;;;;5074915;28;20048;-80
2022/11/17 09:47:34;;;;;;;7.40;4.03;;;7.10;99.90;;;;;;5056732;28;20067;-80
2022/11/17 09:50:21;;;;;;;6.15;3.30;;;6.90;99.90;;;;;;5088874;28;20059;-80
2022/11/17 09:52:53;;;;;;;5.78;3.33;;;6.90;99.90;;;;;;5055930;28;20112;-80
2022/11/17 09:55:30;;;;;;;6.70;3.92;;;6.50;99.90;;;;;;5041486;28;20029;-82
2022/11/17 09:58:19;;;;;;;6.90;3.42;;;6.50;99.90;;;;;;5055332;28;20119;-83
2022/11/17 10:00:47;;;;;;;5.82;3.53;;;6.20;99.90;;;;;;5032358;28;20499;-83
2022/11/17 10:03:22;;;;;;;5.40;3.38;;;6.30;99.90;;;;;;5057910;28;20041;-83
2022/11/17 10:05:48;;;;;;;8.98;3.78;;;6.40;99.90;;;;;;5057949;28;20045;-83
2022/11/17 10:08:28;;;;;;;4.90;3.05;;;6.30;99.90;;;;;;5072104;28;20048;-83
2022/11/17 10:10:54;;;;;;;4.97;3.30;;;6.80;99.90;;;;;;5070599;28;20041;-83
2022/11/17 10:13:35;;;;;;;5.78;3.50;;;6.30;99.90;;;;;;5109844;28;20093;-83
2022/11/17 10:16:12;;;;;;;6.35;3.10;;;7.10;99.90;;;;;;5072248;28;20037;-83
2022/11/17 10:18:38;;;;;;;5.55;3.50;;;6.50;99.90;;;;;;5053974;28;20037;-83
2022/11/17 10:21:05;;;;;;;5.95;3.10;;;6.40;99.90;;;;;;5059089;28;20051;-83
2022/11/17 10:23:42;;;;;;;4.97;3.10;;;7.10;99.90;;;;;;5042892;28;20097;-83
2022/11/17 10:26:14;;;;;;;5.43;3.33;;;6.40;99.90;;;;;;5058640;28;20037;-83
2022/11/17 10:28:40;;;;;;;4.88;2.88;;;6.80;99.90;;;;;;5056867;28;20037;-82
2022/11/17 10:31:11;;;;;;;4.18;3.10;;;7.00;99.90;;;;;;5041818;28;20033;-83
2022/11/17 10:33:46;;;;;;;3.95;2.47;;;7.10;99.90;;;;;;5066172;28;20044;-83
2022/11/17 10:36:20;;;;;;;4.80;2.60;;;7.00;99.90;;;;;;5059082;28;20039;-83
2022/11/17 10:38:48;;;;;;;4.75;2.92;;;6.70;99.90;;;;;;5058914;28;20479;-83
2022/11/17 10:41:17;;;;;;;4.75;2.70;;;7.30;99.90;;;;;;5060175;28;20037;-83
2022/11/17 10:44:02;;;;;;;5.18;3.35;;;7.30;99.90;;;;;;5072466;28;20072;-83
2022/11/17 10:46:27;;;;;;;4.57;2.72;;;7.00;99.90;;;;;;5075339;28;20044;-82
2022/11/17 10:49:03;;;;;;;5.22;2.67;;;7.00;99.90;;;;;;5058049;28;20040;-81
2022/11/17 10:51:31;;;;;;;5.18;2.70;;;7.20;99.90;;;;;;5046890;28;20071;-80
2022/11/17 10:54:00;;;;;;;4.95;2.75;;;7.00;99.90;;;;;;5063287;28;20037;-79
2022/11/17 10:56:26;;;;;;;4.07;2.85;;;6.80;99.90;;;;;;5067103;28;20119;-80
2022/11/17 10:58:57;;;;;;;4.90;2.72;;;7.30;99.90;;;;;;5060813;28;20040;-80
2022/11/17 11:01:31;;;;;;;4.78;2.72;;;7.50;99.90;;;;;;5063042;28;20078;-80
2022/11/17 11:03:57;;;;;;;4.15;2.50;;;6.60;99.90;;;;;;5065524;28;20496;-80
2022/11/17 11:06:31;;;;;;;4.65;2.65;;;7.10;99.90;;;;;;5055694;28;20098;-78
2022/11/17 11:09:05;;;;;;;4.93;2.80;;;6.80;99.90;;;;;;5057868;28;20048;-78
2022/11/17 11:11:46;;;;;;;4.68;2.80;;;8.10;99.90;;;;;;5069493;28;20047;-78
2022/11/17 11:14:15;;;;;;;4.45;2.60;;;7.70;99.90;;;;;;5049590;28;20060;-77
2022/11/17 11:16:44;;;;;;;4.65;2.88;;;7.20;99.90;;;;;;5056899;28;20086;-77
2022/11/17 11:19:14;;;;;;;4.05;2.58;;;6.80;99.90;;;;;;5091352;28;20044;-77
2022/11/17 11:22:01;;;;;;;4.82;2.60;;;6.80;99.90;;;;;;5057586;28;20047;-78
2022/11/17 11:24:52;;;;;;;6.30;3.65;;;7.30;99.90;;;;;;5090811;28;20091;-80
2022/11/17 11:27:24;;;;;;;5.18;3.17;;;7.40;99.90;;;;;;5106689;28;20076;-80
2022/11/17 11:29:58;;;;;;;7.07;2.95;;;7.40;99.90;;;;;;5056837;28;20414;-80
2022/11/17 11:32:58;;;;;;;5.32;3.10;;;7.00;99.90;;;;;;5051126;28;20044;-80
2022/11/17 11:35:54;;;;;;;3.92;2.35;;;7.30;99.90;;;;;;5069362;28;20036;-80
2022/11/17 11:38:29;;;;;;;4.83;2.90;;;7.30;99.90;;;;;;5055766;28;20115;-80
2022/11/17 11:41:06;;;;;;;3.60;2.30;;;7.90;99.90;;;;;;5057944;28;20314;-78
2022/11/17 11:44:00;;;;;;;3.92;2.30;;;7.10;99.90;;;;;;5056629;28;20091;-78
2022/11/17 11:47:04;;;;;;;5.43;2.85;;;7.50;99.90;;;;;;5055767;28;20089;-78
2022/11/17 11:49:41;;;;;;;3.60;2.22;;;7.40;99.90;;;;;;5023340;28;20060;-78
2022/11/17 11:52:15;;;;;;;4.25;2.42;;;7.80;99.90;;;;;;5056684;28;20141;-78
2022/11/17 11:54:50;;;;;;;4.25;2.83;;;7.40;99.90;;;;;;5073419;28;20048;-78
2022/11/17 11:57:19;;;;;;;4.13;2.35;;;7.00;99.90;;;;;;5039808;28;20047;-78
2022/11/17 12:00:12;;;;;;;4.40;2.45;;;7.10;99.90;;;;;;5058150;28;20040;-80
2022/11/17 12:02:46;;;;;;;3.33;2.33;;;7.20;99.90;;;;;;5039210;28;20494;-80
2022/11/17 12:05:19;;;;;;;3.97;2.38;;;7.00;99.90;;;;;;5048359;28;20041;-80
2022/11/17 12:08:07;;;;;;;3.10;2.00;;;7.50;99.90;;;;;;5056158;28;20070;-80
2022/11/17 12:10:54;;;;;;;3.53;2.03;;;6.90;99.90;;;;;;5060577;28;20040;-80
2022/11/17 12:13:22;;;;;;;4.60;2.25;;;7.40;99.90;;;;;;5057069;28;20044;-79
2022/11/17 12:15:48;;;;;;;3.70;2.20;;;8.60;99.90;;;;;;5056155;28;20043;-79
2022/11/17 12:18:34;;;;;;;3.28;1.95;;;6.90;99.90;;;;;;5037090;28;20036;-79
2022/11/17 12:21:10;;;;;;;3.30;2.08;;;6.90;99.90;;;;;;5038472;28;20064;-79
2022/11/17 12:23:58;;;;;;;3.28;2.13;;;7.30;99.90;;;;;;5057018;28;20388;-80
2022/11/17 12:26:27;;;;;;;3.75;1.85;;;6.90;99.90;;;;;;5057366;28;20468;-79
2022/11/17 12:29:20;;;;;;;2.60;1.73;;;7.20;99.90;;;;;;5056146;28;20048;-80
2022/11/17 12:31:47;;;;;;;3.20;2.03;;;7.40;99.90;;;;;;5055493;28;20072;-79
2022/11/17 12:34:35;;;;;;;4.15;1.90;;;7.30;99.90;;;;;;5055628;28;20120;-79
2022/11/17 12:37:25;;;;;;;4.45;2.25;;;7.50;99.90;;;;;;5055891;28;20043;-80
2022/11/17 12:40:10;;;;;;;2.95;1.90;;;7.00;99.90;;;;;;5055530;28;20037;-79
2022/11/17 12:42:56;;;;;;;4.10;2.38;;;7.30;99.90;;;;;;5088259;28;20037;-80
2022/11/17 12:45:21;;;;;;;3.30;2.00;;;7.10;99.90;;;;;;5034210;28;20040;-80
2022/11/17 12:47:47;;;;;;;4.25;2.22;;;7.60;99.90;;;;;;5035458;28;20041;-80
2022/11/17 12:50:43;;;;;;;3.63;2.53;;;7.20;99.90;;;;;;5052755;28;20081;-80
2022/11/17 12:53:47;;;;;;;3.97;2.25;;;7.20;99.90;;;;;;5052134;28;20047;-81
2022/11/17 12:56:25;;;;;;;5.80;2.50;;;7.30;99.90;;;;;;5052369;28;20560;-81
2022/11/17 12:58:57;;;;;;;4.90;2.38;;;7.30;99.90;;;;;;5083721;28;20492;-81
2022/11/17 13:01:58;;;;;;;4.78;2.50;;;7.60;99.90;;;;;;5071411;28;20044;-81
2022/11/17 13:04:39;;;;;;;3.40;2.13;;;7.80;99.90;;;;;;5098147;22;20507;-80
2022/11/17 13:07:22;;;;;;;3.40;2.20;;;7.30;99.90;;;;;;5087624;28;20114;-80
2022/11/17 13:09:58;;;;;;;4.20;2.15;;;7.40;99.90;;;;;;5052054;28;20053;-80
2022/11/17 13:12:32;;;;;;;3.65;2.58;;;7.70;99.90;;;;;;5039010;28;20040;-80
2022/11/17 13:15:03;;;;;;;3.45;2.20;;;7.40;99.90;;;;;;5039640;28;20469;-80
2022/11/17 13:17:40;;;;;;;5.50;2.65;;;7.90;99.90;;;;;;5106083;28;20071;-80
2022/11/17 13:20:15;;;;;;;4.18;2.30;;;8.00;99.90;;;;;;5060424;28;20070;-78
2022/11/17 13:22:40;;;;;;;4.20;2.40;;;8.00;99.90;;;;;;5057205;28;20048;-78
2022/11/17 13:25:21;;;;;;;4.45;1.95;;;7.70;99.90;;;;;;5059241;28;20094;-78
2022/11/17 13:27:47;;;;;;;4.28;2.38;;;8.30;99.90;;;;;;5039174;28;20024;-78
2022/11/17 13:30:30;;;;;;;3.95;2.58;;;8.40;99.90;;;;;;5038308;28;20037;-78
2022/11/17 13:32:58;;;;;;;4.57;2.38;;;7.90;99.90;;;;;;5064729;28;20029;-78
2022/11/17 13:35:28;;;;;;;4.18;2.95;;;8.50;99.90;;;;;;5067416;28;20043;-78
2022/11/17 13:38:22;;;;;;;4.78;2.80;;;7.90;99.90;;;;;;5055396;28;20082;-78
2022/11/17 13:40:50;;;;;;;5.45;2.50;;;8.50;99.90;;;;;;5053457;28;20409;-78